Time;durP1;ratioP1;P1;durP2;ratioP2;P2;SDS_P1;SDS_P2;PMS_P1;PMS_P2;Temp;Humidity;BMP_temperature;BMP_pressure;BME280_temperature;BME280_humidity;BME280_pressure;Samples;Min_cycle;Max_cycle;Signal;HPM_P1;HPM_P2
2022/09/23 00:01:33;;;;;;;;;;;;;;;12.99;62.41;99886.75;5006820;28;20096;-82
2022/09/23 00:03:59;;;;;;;0.93;0.93;;;;;;;12.98;62.48;99868.22;5008085;28;19921;-83
2022/09/23 00:06:26;;;;;;;;;;;;;;;13.18;61.21;99887.19;5008045;28;20034;-82
2022/09/23 00:08:53;;;;;;;0.43;0.43;;;;;;;13.27;61.55;99891.41;5007841;28;19972;-82
2022/09/23 00:11:21;;;;;;;0.35;0.35;;;;;;;13.23;61.06;99880.00;5007457;28;20033;-82
2022/09/23 00:13:49;;;;;;;0.50;0.50;;;;;;;12.76;61.49;99863.41;5008030;28;20042;-83
2022/09/23 00:16:27;;;;;;;0.40;0.40;;;;;;;12.98;61.14;99870.88;5008225;28;20487;-83
2022/09/23 00:18:53;;;;;;;0.70;0.70;;;;;;;13.06;61.18;99859.19;5007471;28;20111;-82
2022/09/23 00:21:20;;;;;;;;;;;;;;;12.95;61.37;99887.69;5007990;28;20073;-82
2022/09/23 00:23:45;;;;;;;0.30;0.30;;;;;;;13.10;60.95;99860.00;5007506;28;20012;-84
2022/09/23 00:26:12;;;;;;;;;;;;;;;13.41;60.22;99885.81;5008399;28;20518;-83
2022/09/23 00:28:38;;;;;;;0.30;0.30;;;;;;;13.59;59.25;99872.13;5008096;28;19980;-82
2022/09/23 00:31:04;;;;;;;;;;;;;;;13.62;59.20;99887.06;5008175;28;20083;-82
2022/09/23 00:33:30;;;;;;;0.28;0.28;;;;;;;13.69;58.94;99877.22;5007602;28;20366;-82
2022/09/23 00:36:00;;;;;;;0.60;0.60;;;;;;;13.64;58.19;99882.63;5007669;28;20018;-82
2022/09/23 00:38:26;;;;;;;0.52;0.52;;;;;;;13.48;58.74;99858.25;5005357;28;20095;-82
2022/09/23 00:40:52;;;;;;;1.27;1.27;;;;;;;13.29;59.17;99851.66;4996123;28;20034;-82
2022/09/23 00:43:18;;;;;;;;;;;;;;;13.21;60.19;99889.78;5004219;28;20037;-82
2022/09/23 00:45:47;;;;;;;0.40;0.40;;;;;;;13.04;60.83;99884.84;5001458;28;20391;-82
2022/09/23 00:48:19;;;;;;;0.20;0.20;;;;;;;12.85;61.45;99900.28;5005630;28;20138;-83
2022/09/23 00:50:49;;;;;;;2.58;2.35;;;;;;;12.47;62.03;99856.06;4995674;28;20029;-82
2022/09/23 00:53:20;;;;;;;0.40;0.40;;;;;;;12.42;62.68;99884.38;5007596;28;20128;-82
2022/09/23 00:55:50;;;;;;;0.30;0.30;;;;;;;12.44;63.15;99878.16;5007986;28;20061;-82
2022/09/23 00:58:20;;;;;;;0.65;0.65;;;;;;;12.65;62.81;99883.91;5007192;28;20030;-82
2022/09/23 01:00:45;;;;;;;0.63;0.63;;;;;;;12.43;63.74;99876.41;5007237;28;20042;-83
2022/09/23 01:03:12;;;;;;;;;;;;;;;12.65;63.46;99894.50;5007709;28;20030;-82
2022/09/23 01:05:38;;;;;;;1.95;1.85;;;;;;;12.51;64.03;99889.47;5007003;28;19929;-83
2022/09/23 01:08:07;;;;;;;0.30;0.30;;;;;;;12.61;63.80;99885.75;5007718;28;20029;-82
2022/09/23 01:10:54;;;;;;;0.50;0.50;;;;;;;12.61;63.39;99859.28;5007631;28;20029;-82
2022/09/23 01:13:45;;;;;;;0.73;0.73;;;;;;;12.82;63.27;99896.78;5007301;28;20052;-81
2022/09/23 01:16:19;;;;;;;0.60;0.60;;;;;;;12.86;63.77;99898.47;4959733;28;20038;-81
2022/09/23 01:19:01;;;;;;;0.65;0.65;;;;;;;12.95;63.23;99876.25;5006444;28;20465;-82
2022/09/23 01:22:03;;;;;;;1.02;1.02;;;;;;;12.99;62.83;99877.91;5007276;28;20118;-82
2022/09/23 01:24:38;;;;;;;0.98;0.98;;;;;;;13.11;62.34;99890.88;5006960;28;20125;-81
2022/09/23 01:27:41;;;;;;;3.00;1.37;;;;;;;12.98;61.79;99882.34;4989158;28;20032;-82
2022/09/23 01:30:40;;;;;;;1.45;1.35;;;;;;;12.94;61.10;99880.66;5007003;28;21169;-80
2022/09/23 01:33:13;;;;;;;0.82;0.82;;;;;;;12.92;61.27;99866.59;5007350;28;20030;-82
2022/09/23 01:35:41;;;;;;;4.85;1.80;;;;;;;13.08;60.61;99889.19;5007256;28;20061;-81
2022/09/23 01:38:31;;;;;;;0.35;0.35;;;;;;;12.95;61.15;99886.84;5007405;28;20041;-82
2022/09/23 01:41:04;;;;;;;1.67;1.65;;;;;;;12.93;61.60;99886.88;5006670;28;20412;-81
2022/09/23 01:43:41;;;;;;;0.38;0.38;;;;;;;12.93;61.63;99888.63;5007331;28;20026;-81
2022/09/23 01:46:20;;;;;;;0.35;0.35;;;;;;;12.82;61.90;99870.31;5006904;28;20029;-81
2022/09/23 01:48:53;;;;;;;0.38;0.38;;;;;;;12.89;62.23;99883.41;5006932;28;20111;-81
2022/09/23 01:51:27;;;;;;;0.30;0.30;;;;;;;12.69;61.91;99860.00;5010667;28;20037;-81
2022/09/23 01:54:05;;;;;;;1.00;1.00;;;;;;;12.67;62.29;99885.63;4993713;28;20061;-81
2022/09/23 01:56:39;;;;;;;3.85;1.30;;;;;;;12.44;63.29;99849.06;5010730;28;20030;-81
2022/09/23 01:59:13;;;;;;;0.50;0.50;;;;;;;12.68;62.35;99876.81;5010582;28;20044;-81
2022/09/23 02:01:49;;;;;;;1.27;1.17;;;;;;;12.67;63.09;99879.47;5010783;28;20045;-81
2022/09/23 02:04:57;;;;;;;0.35;0.35;;;;;;;12.57;62.54;99848.81;5010489;28;20657;-81
2022/09/23 02:07:34;;;;;;;0.45;0.45;;;;;;;12.64;62.88;99868.94;5001431;28;20138;-80
2022/09/23 02:10:14;;;;;;;0.45;0.45;;;;;;;12.53;63.72;99877.13;5010437;28;20040;-80
2022/09/23 02:12:45;;;;;;;0.43;0.43;;;;;;;12.35;63.62;99843.94;5010385;28;20026;-81
2022/09/23 02:15:17;;;;;;;0.38;0.38;;;;;;;12.19;63.86;99867.19;5010733;28;20088;-83
2022/09/23 02:17:52;;;;;;;0.20;0.20;;;;;;;12.33;63.61;99870.44;5010059;28;20097;-80
2022/09/23 02:20:27;;;;;;;0.20;0.20;;;;;;;12.30;63.87;99864.34;5009824;28;20048;-81
2022/09/23 02:23:11;;;;;;;0.47;0.47;;;;;;;12.50;63.79;99890.41;5010006;28;20038;-82
2022/09/23 02:25:56;;;;;;;1.45;1.35;;;;;;;12.23;63.25;99873.28;5009884;28;20467;-82
2022/09/23 02:28:35;;;;;;;0.63;0.63;;;;;;;12.24;62.34;99859.16;5008997;28;20117;-81
2022/09/23 02:31:15;;;;;;;0.75;0.75;;;;;;;12.17;62.05;99887.47;5010066;28;20069;-82
2022/09/23 02:33:54;;;;;;;4.10;2.30;;;;;;;12.32;60.97;99881.91;5009955;28;20034;-81
2022/09/23 02:36:22;;;;;;;1.40;1.33;;;;;;;12.44;61.42;99887.88;5009775;28;20439;-81
2022/09/23 02:38:56;;;;;;;1.33;1.23;;;;;;;12.35;61.40;99857.16;5009877;28;20555;-81
2022/09/23 02:41:41;;;;;;;2.05;1.45;;;;;;;12.63;61.44;99889.22;5009720;28;20526;-82
2022/09/23 02:44:14;;;;;;;0.57;0.57;;;;;;;12.26;60.09;99858.22;5010034;28;20061;-81
2022/09/23 02:46:43;;;;;;;3.25;1.00;;;;;;;12.20;60.88;99884.78;5009870;28;20046;-81
2022/09/23 02:49:17;;;;;;;0.63;0.50;;;;;;;12.27;60.89;99890.84;5010346;28;20141;-81
2022/09/23 02:51:43;;;;;;;0.30;0.30;;;;;;;12.33;60.54;99881.00;5009722;28;20129;-82
2022/09/23 02:54:13;;;;;;;1.60;1.50;;;;;;;12.45;60.22;99860.50;5009561;28;20120;-81
2022/09/23 02:56:39;;;;;;;0.38;0.38;;;;;;;12.46;59.89;99884.28;5009940;28;20096;-81
2022/09/23 02:59:06;;;;;;;0.30;0.30;;;;;;;12.39;60.03;99876.50;5009114;28;20053;-81
2022/09/23 03:02:12;;;;;;;0.30;0.30;;;;;;;12.32;61.12;99894.25;4998905;28;20077;-80
2022/09/23 03:05:05;;;;;;;0.45;0.45;;;;;;;12.21;60.85;99891.81;5000452;28;20596;-82
2022/09/23 03:07:49;;;;;;;0.40;0.40;;;;;;;12.10;61.04;99901.72;5008039;28;20061;-81
2022/09/23 03:10:31;;;;;;;0.85;0.85;;;;;;;12.30;60.47;99898.72;4992011;28;20479;-81
2022/09/23 03:13:04;;;;;;;0.28;0.28;;;;;;;12.12;60.22;99887.56;5009304;28;20088;-81
2022/09/23 03:15:36;;;;;;;0.38;0.38;;;;;;;12.23;60.39;99905.88;5009028;28;20144;-81
2022/09/23 03:18:01;;;;;;;0.30;0.30;;;;;;;12.18;60.35;99907.75;5008762;28;20224;-80
2022/09/23 03:20:37;;;;;;;;;;;;;;;12.10;60.37;99909.66;5003831;28;20133;-81
2022/09/23 03:23:07;;;;;;;0.40;0.40;;;;;;;12.00;60.96;99904.53;5004041;28;19917;-81
2022/09/23 03:25:37;;;;;;;0.50;0.50;;;;;;;12.06;61.01;99903.53;5008869;28;20431;-81
2022/09/23 03:28:05;;;;;;;0.73;0.73;;;;;;;11.61;61.40;99885.75;5008089;28;20038;-84
2022/09/23 03:30:34;;;;;;;0.35;0.35;;;;;;;11.41;62.49;99887.84;4986852;28;20033;-85
2022/09/23 03:33:03;;;;;;;0.50;0.50;;;;;;;11.70;62.20;99920.88;4994371;28;20038;-81
2022/09/23 03:36:48;;;;;;;0.90;0.90;;;;;;;11.63;61.70;99915.69;5006962;28;20080;-82
2022/09/23 03:38:23;;;;;;;0.60;0.60;;;;;;;11.52;62.24;99893.81;5004846;28;20468;-82
2022/09/23 03:40:50;;;;;;;0.68;0.68;;;;;;;11.80;61.74;99914.53;5008641;28;20037;-82
2022/09/23 03:43:15;;;;;;;2.13;2.03;;;;;;;11.83;62.08;99925.94;5008104;28;20029;-81
2022/09/23 03:45:41;;;;;;;;;;;;;;;11.54;62.54;99925.50;5003496;28;20045;-82
2022/09/23 03:48:07;;;;;;;0.30;0.30;;;;;;;11.41;62.38;99915.13;4997405;28;19921;-81
2022/09/23 03:50:34;;;;;;;;;;;;;;;11.50;62.69;99927.34;5006595;28;20504;-81
2022/09/23 03:53:00;;;;;;;0.40;0.40;;;;;;;11.42;62.85;99922.16;5008172;28;19951;-82
2022/09/23 03:55:25;;;;;;;;;;;;;;;11.34;63.76;99929.34;5006212;28;20176;-82
2022/09/23 03:57:50;;;;;;;0.30;0.30;;;;;;;11.24;64.36;99912.72;5008408;28;19956;-83
2022/09/23 04:00:16;;;;;;;;;;;;;;;11.31;64.41;99934.66;5008655;28;20041;-81
2022/09/23 04:02:42;;;;;;;1.55;1.42;;;;;;;11.24;64.42;99920.66;5005518;28;19917;-82
2022/09/23 04:05:08;;;;;;;;;;;;;;;11.24;64.08;99933.84;5001873;28;20040;-83
2022/09/23 04:07:33;;;;;;;0.40;0.40;;;;;;;11.37;64.38;99933.69;5008376;28;20370;-83
2022/09/23 04:09:58;;;;;;;;;;;;;;;11.41;64.22;99924.84;5008873;28;20037;-83
2022/09/23 04:12:24;;;;;;;0.50;0.50;;;;;;;11.23;64.20;99915.41;5007285;28;19917;-81
2022/09/23 04:14:49;;;;;;;;;;;;;;;11.11;65.31;99927.88;5008488;28;20030;-81
2022/09/23 04:17:14;;;;;;;;;;;;;;;11.22;64.57;99935.66;5008987;28;20410;-82
2022/09/23 04:19:40;;;;;;;0.77;0.77;;;;;;;11.05;65.09;99909.47;5002001;28;19921;-82
2022/09/23 04:22:06;;;;;;;;;;;;;;;11.23;64.55;99934.78;5006753;28;20034;-82
2022/09/23 04:24:31;;;;;;;0.60;0.60;;;;;;;11.16;65.02;99927.81;5006532;28;19922;-82
2022/09/23 04:26:56;;;;;;;;;;;;;;;11.28;64.74;99954.06;5007965;28;20093;-82
2022/09/23 04:29:22;;;;;;;;;;;;;;;11.30;64.71;99946.13;5007698;28;19948;-82
2022/09/23 04:31:48;;;;;;;0.52;0.52;;;;;;;11.16;65.14;99929.59;4961714;28;19918;-84
2022/09/23 04:34:16;;;;;;;;;;;;;;;11.39;65.01;99943.34;5006834;28;20129;-83
2022/09/23 04:36:42;;;;;;;0.65;0.65;;;;;;;11.39;64.65;99926.63;4988381;28;20355;-82
2022/09/23 04:39:07;;;;;;;0.30;0.30;;;;;;;11.56;63.82;99940.44;4996984;28;20062;-84
2022/09/23 04:41:32;;;;;;;;;;;;;;;11.75;64.06;99948.97;4992935;28;20428;-82
2022/09/23 04:43:58;;;;;;;;;;;;;;;11.84;63.80;99963.81;4987272;28;20296;-83
2022/09/23 04:46:24;;;;;;;0.43;0.43;;;;;;;11.81;63.94;99954.16;4992202;28;19980;-84
2022/09/23 04:48:49;;;;;;;;;;;;;;;12.09;63.02;99966.09;4998372;28;20293;-83
2022/09/23 04:51:17;;;;;;;0.65;0.65;;;;;;;12.00;63.45;99946.84;4999201;28;19921;-81
2022/09/23 04:53:44;;;;;;;0.70;0.70;;;;;;;12.10;62.82;99944.91;5000181;28;20034;-83
2022/09/23 04:56:16;;;;;;;0.30;0.30;;;;;;;12.19;62.21;99928.00;5007327;28;20092;-84
2022/09/23 04:58:42;;;;;;;0.45;0.45;;;;;;;12.25;62.42;99946.41;5007583;28;20033;-85
2022/09/23 05:01:18;;;;;;;1.55;0.85;;;;;;;12.08;62.19;99932.59;5008022;28;20500;-83
2022/09/23 05:03:44;;;;;;;;;;;;;;;12.34;62.60;99975.34;5008150;28;20040;-82
2022/09/23 05:06:12;;;;;;;0.30;0.30;;;;;;;12.21;62.02;99949.16;5007938;28;19999;-85
2022/09/23 05:08:38;;;;;;;0.50;0.50;;;;;;;12.42;61.65;99963.72;4995266;28;20026;-83
2022/09/23 05:11:04;;;;;;;0.30;0.30;;;;;;;12.63;60.39;99946.59;5004591;28;20065;-82
2022/09/23 05:13:31;;;;;;;;;;;;;;;12.93;60.90;99970.69;4994036;28;20481;-86
2022/09/23 05:16:04;;;;;;;1.42;1.40;;;;;;;12.71;59.79;99936.72;4993006;28;19918;-87
2022/09/23 05:18:31;;;;;;;0.40;0.40;;;;;;;13.07;59.49;99950.13;4987026;28;20038;-83
2022/09/23 05:20:57;;;;;;;0.35;0.35;;;;;;;13.17;59.45;99933.13;4986105;28;20042;-83
2022/09/23 05:23:23;;;;;;;;;;;;;;;13.45;58.80;99960.81;4991378;28;20033;-87
2022/09/23 05:25:55;;;;;;;0.82;0.82;;;;;;;13.52;58.54;99950.03;5005327;28;20000;-83
2022/09/23 05:28:21;;;;;;;0.98;0.98;;;;;;;13.15;59.68;99950.81;5005154;28;20049;-84
2022/09/23 05:30:46;;;;;;;;;;;;;;;13.67;58.10;99962.06;5007002;28;20610;-83
2022/09/23 05:33:11;;;;;;;0.95;0.95;;;;;;;13.13;58.69;99922.63;5006738;28;19971;-83
2022/09/23 05:35:37;;;;;;;;;;;;;;;13.64;57.95;99962.16;5002416;28;20045;-82
2022/09/23 05:38:02;;;;;;;;;;;;;;;13.50;58.33;99966.88;5000101;28;20004;-84
2022/09/23 05:40:27;;;;;;;1.85;1.30;;;;;;;13.28;58.42;99935.53;4989507;28;20370;-84
2022/09/23 05:42:53;;;;;;;;;;;;;;;13.37;57.52;99964.50;4990576;28;20056;-83
2022/09/23 05:45:18;;;;;;;;;;;;;;;13.45;58.06;99969.63;5002479;28;19933;-83
2022/09/23 05:47:43;;;;;;;0.85;0.85;;;;;;;13.42;57.67;99922.88;5006427;28;20298;-85
2022/09/23 05:50:09;;;;;;;;;;;;;;;13.77;57.60;99965.38;5007019;28;20833;-84
2022/09/23 05:52:35;;;;;;;;;;;;;;;13.84;57.83;99966.09;4990811;28;19914;-83
2022/09/23 05:55:01;;;;;;;0.35;0.35;;;;;;;14.05;56.73;99965.56;4996065;28;19979;-83
2022/09/23 05:57:27;;;;;;;0.52;0.52;;;;;;;14.11;55.88;99930.06;4985562;28;20416;-82
2022/09/23 05:59:52;;;;;;;4.80;0.57;;;;;;;14.18;55.81;99947.56;5006904;28;20038;-82
2022/09/23 06:02:17;;;;;;;;;;;;;;;14.66;54.95;99963.13;5006437;28;20057;-82
2022/09/23 06:04:43;;;;;;;1.80;1.70;;;;;;;14.76;54.57;99912.41;5006138;28;19925;-83
2022/09/23 06:07:09;;;;;;;;;;;;;;;15.11;52.61;99961.00;5007046;28;20037;-83
2022/09/23 06:09:34;;;;;;;2.05;1.88;;;;;;;14.89;53.02;99919.13;5006724;28;19913;-82
2022/09/23 06:12:00;;;;;;;1.70;1.13;;;;;;;15.04;52.68;99947.91;5006583;28;20037;-85
2022/09/23 06:14:26;;;;;;;;;;;;;;;15.03;52.02;99962.09;5007302;28;20026;-84
2022/09/23 06:16:51;;;;;;;0.22;0.22;;;;;;;14.79;52.42;99926.47;5006995;28;19913;-82
2022/09/23 06:19:16;;;;;;;0.80;0.80;;;;;;;14.84;52.04;99926.34;5006566;28;20061;-85
2022/09/23 06:21:42;;;;;;;2.83;1.17;;;;;;;15.09;52.33;99931.81;5006777;28;20030;-83
2022/09/23 06:24:08;;;;;;;;;;;;;;;15.48;52.19;99954.56;5007079;28;20026;-82
2022/09/23 06:26:36;;;;;;;0.80;0.75;;;;;;;15.24;51.12;99925.16;5006480;28;19917;-82
2022/09/23 06:29:07;;;;;;;0.57;0.57;;;;;;;15.68;51.84;99956.59;5006500;28;20060;-82
2022/09/23 06:31:32;;;;;;;0.75;0.75;;;;;;;15.60;51.84;99916.06;5006899;28;20029;-82
2022/09/23 06:33:58;;;;;;;2.15;1.95;;;;;;;15.65;51.33;99957.56;5006815;28;20034;-82
2022/09/23 06:36:23;;;;;;;0.57;0.57;;;;;;;15.09;51.89;99929.16;4991011;28;20030;-82
2022/09/23 06:38:49;;;;;;;0.20;0.20;;;;;;;15.24;52.03;99921.63;5010205;28;20045;-84
2022/09/23 06:41:15;;;;;;;0.88;0.55;;;;;;;15.14;51.72;99934.34;5009853;28;20044;-83
2022/09/23 06:43:40;;;;;;;0.40;0.40;;;;;;;15.35;51.87;99948.75;5010326;28;20033;-84
2022/09/23 06:46:06;;;;;;;;;;;;;;;15.85;50.05;99956.94;5010591;28;20038;-85
2022/09/23 06:48:34;;;;;;;1.23;0.85;;;;;;;15.95;50.13;99954.84;5009946;28;19921;-83
2022/09/23 06:51:02;;;;;;;0.77;0.57;;;;;;;15.78;50.20;99931.47;5009796;28;20026;-84
2022/09/23 06:53:31;;;;;;;0.10;0.10;;;;;;;15.94;50.09;99969.06;5009692;28;20042;-84
2022/09/23 06:56:07;;;;;;;0.40;0.40;;;;;;;15.46;50.40;99973.22;5009472;28;20045;-85
2022/09/23 06:58:34;;;;;;;0.30;0.30;;;;;;;15.38;49.94;99957.50;5009870;28;20416;-84
2022/09/23 07:01:04;;;;;;;0.70;0.68;;;;;;;15.79;49.92;99959.81;5009656;28;20521;-84
2022/09/23 07:03:30;;;;;;;0.45;0.45;;;;;;;15.69;48.81;99955.66;5009431;28;20035;-83
2022/09/23 07:05:57;;;;;;;0.15;0.15;;;;;;;15.41;50.01;99972.47;5009657;28;20954;-82
2022/09/23 07:08:23;;;;;;;0.35;0.35;;;;;;;15.20;51.04;99974.88;5008990;28;20044;-84
2022/09/23 07:10:58;;;;;;;0.40;0.40;;;;;;;14.94;50.64;99938.44;5009603;28;20030;-83
2022/09/23 07:13:24;;;;;;;1.55;0.70;;;;;;;14.61;50.16;99954.41;4991807;28;20038;-82
2022/09/23 07:15:55;;;;;;;0.40;0.40;;;;;;;14.58;51.10;99967.75;5009424;28;20034;-83
2022/09/23 07:18:24;;;;;;;0.85;0.68;;;;;;;14.80;51.87;99983.97;5009319;28;20030;-84
2022/09/23 07:20:50;;;;;;;0.10;0.10;;;;;;;14.95;49.85;99968.53;5009793;28;20029;-85
2022/09/23 07:23:16;;;;;;;0.40;0.40;;;;;;;14.81;50.01;99969.81;5009532;28;20040;-83
2022/09/23 07:25:43;;;;;;;1.13;1.10;;;;;;;15.02;50.12;99970.09;5009445;28;20034;-84
2022/09/23 07:28:09;;;;;;;1.83;1.17;;;;;;;15.57;48.73;99979.06;5009024;28;20045;-82
2022/09/23 07:30:39;;;;;;;0.45;0.30;;;;;;;15.97;48.80;99955.66;5009542;28;20037;-84
2022/09/23 07:33:04;;;;;;;0.90;0.90;;;;;;;16.57;47.78;99958.94;5008622;28;20029;-86
2022/09/23 07:35:31;;;;;;;1.05;0.57;;;;;;;16.80;45.11;99983.88;5009564;28;20448;-87
2022/09/23 07:37:56;;;;;;;0.20;0.20;;;;;;;16.82;44.19;99931.41;5000987;28;20038;-83
2022/09/23 07:40:22;;;;;;;0.35;0.35;;;;;;;16.96;43.72;99937.16;5001359;28;20518;-84
2022/09/23 07:42:47;;;;;;;0.43;0.43;;;;;;;17.18;43.33;99985.16;5004506;28;20033;-87
2022/09/23 07:45:13;;;;;;;0.10;0.10;;;;;;;16.35;44.03;99968.63;4996242;28;20053;-84
2022/09/23 07:47:39;;;;;;;0.30;0.30;;;;;;;16.53;45.13;99983.06;5002387;28;20034;-85
2022/09/23 07:50:06;;;;;;;0.32;0.32;;;;;;;16.21;45.98;99971.75;4997588;28;20053;-83
2022/09/23 07:52:35;;;;;;;2.60;0.95;;;;;;;16.51;46.59;99955.63;5002307;28;20415;-83
2022/09/23 07:55:01;;;;;;;0.10;0.10;;;;;;;17.05;43.52;99941.25;4994679;28;20045;-84
2022/09/23 07:57:27;;;;;;;0.10;0.10;;;;;;;17.59;43.45;99960.50;5009068;28;20029;-84
2022/09/23 07:59:52;;;;;;;0.25;0.25;;;;;;;17.81;42.31;99983.63;5006291;28;20044;-84
2022/09/23 08:02:18;;;;;;;0.10;0.10;;;;;;;17.35;42.74;99955.19;4988615;28;20100;-84
2022/09/23 08:04:43;;;;;;;0.30;0.30;;;;;;;17.71;42.07;99951.13;4977795;28;20125;-84
2022/09/23 08:07:11;;;;;;;0.30;0.30;;;;;;;17.79;42.67;99945.50;5006275;28;20104;-83
2022/09/23 08:09:40;;;;;;;0.10;0.10;;;;;;;17.92;40.91;99943.22;4998442;28;20427;-83
2022/09/23 08:12:12;;;;;;;0.20;0.20;;;;;;;17.88;41.75;99946.00;4986176;28;20488;-84
2022/09/23 08:14:37;;;;;;;1.25;0.82;;;;;;;18.09;42.20;99943.41;4993581;28;20030;-83
2022/09/23 08:17:04;;;;;;;1.75;0.63;;;;;;;18.16;40.06;99925.31;4984972;28;20563;-86
2022/09/23 08:19:29;;;;;;;1.48;1.20;;;;;;;17.80;39.62;99915.22;5001134;28;20065;-86
2022/09/23 08:21:56;;;;;;;0.90;0.85;;;;;;;17.61;41.39;99907.97;5001824;28;20037;-87
2022/09/23 08:24:23;;;;;;;0.20;0.20;;;;;;;18.02;39.93;99910.72;5002527;28;20034;-87
2022/09/23 08:26:53;;;;;;;1.38;1.15;;;;;;;18.41;39.00;99947.34;5000617;28;20022;-85
2022/09/23 08:29:23;;;;;;;0.30;0.30;;;;;;;18.38;39.75;99933.25;5004762;28;20042;-86
2022/09/23 08:31:50;;;;;;;0.32;0.32;;;;;;;18.20;39.42;99946.47;5007799;28;20088;-85
2022/09/23 08:34:20;;;;;;;0.10;0.10;;;;;;;17.97;39.44;99933.22;5003086;28;20092;-85
2022/09/23 08:36:46;;;;;;;1.55;0.57;;;;;;;17.84;39.70;99944.38;4999149;28;20034;-87
2022/09/23 08:39:16;;;;;;;0.10;0.10;;;;;;;18.12;39.85;99937.03;4988265;28;20046;-84
2022/09/23 08:42:27;;;;;;;0.35;0.35;;;;;;;18.48;39.00;99931.91;4986730;28;20030;-85
2022/09/23 08:45:00;;;;;;;0.55;0.55;;;;;;;18.54;39.26;99910.28;4985036;28;20049;-85
2022/09/23 08:47:30;;;;;;;0.28;0.28;;;;;;;18.40;39.12;99926.06;4987630;28;20493;-83
2022/09/23 08:50:07;;;;;;;0.55;0.55;;;;;;;18.31;39.51;99923.78;5002895;28;20058;-84
2022/09/23 08:52:51;;;;;;;0.40;0.40;;;;;;;18.87;43.06;99933.78;4988521;28;20556;-83
2022/09/23 08:55:18;;;;;;;0.20;0.20;;;;;;;18.81;38.95;99923.31;5007436;28;20080;-85
2022/09/23 08:57:53;;;;;;;0.28;0.28;;;;;;;18.56;37.35;99936.94;4990027;28;20457;-84
2022/09/23 09:00:22;;;;;;;0.10;0.10;;;;;;;18.59;37.92;99916.28;5006929;28;20128;-83
2022/09/23 09:02:48;;;;;;;0.13;0.13;;;;;;;18.54;37.86;99920.09;5006669;28;20033;-85
2022/09/23 09:05:21;;;;;;;0.63;0.63;;;;;;;18.70;39.08;99910.44;4975074;28;20140;-84
2022/09/23 09:07:48;;;;;;;0.30;0.30;;;;;;;18.48;36.96;99861.63;4990966;28;20035;-85
2022/09/23 09:10:46;;;;;;;0.20;0.20;;;;;;;18.43;36.89;99910.75;4995761;28;20036;-83
2022/09/23 09:13:52;;;;;;;0.13;0.13;;;;;;;18.54;38.18;99914.78;4971105;28;20049;-84
2022/09/23 09:16:24;;;;;;;3.72;0.57;;;;;;;18.86;37.48;99905.34;4974883;28;20568;-83
2022/09/23 09:18:55;;;;;;;0.52;0.52;;;;;;;18.82;37.89;99908.19;4994008;28;20036;-85
2022/09/23 09:21:36;;;;;;;0.40;0.40;;;;;;;18.77;37.89;99879.84;4997933;28;20037;-83
2022/09/23 09:24:07;;;;;;;0.10;0.10;;;;;;;18.94;37.30;99905.84;4998731;28;20041;-82
2022/09/23 09:26:33;;;;;;;0.73;0.73;;;;;;;18.88;36.67;99887.41;5006744;28;20113;-84
2022/09/23 09:29:04;;;;;;;0.13;0.13;;;;;;;18.83;37.20;99893.84;5007192;28;20026;-84
2022/09/23 09:31:41;;;;;;;0.30;0.30;;;;;;;18.58;35.66;99852.22;5007325;28;20026;-85
2022/09/23 09:34:10;;;;;;;0.10;0.10;;;;;;;19.09;36.50;99908.72;5006416;28;20037;-85
2022/09/23 09:36:43;;;;;;;0.17;0.17;;;;;;;19.29;36.32;99919.38;5002643;28;20030;-86
2022/09/23 09:39:16;;;;;;;11.30;0.85;;;;;;;18.85;36.50;99881.34;4999036;28;20048;-86
2022/09/23 09:41:46;;;;;;;0.32;0.32;;;;;;;18.64;37.45;99867.97;5006718;28;20042;-83
2022/09/23 09:44:39;;;;;;;1.65;1.55;;;;;;;18.96;37.10;99909.28;5007095;28;20139;-83
2022/09/23 09:47:06;;;;;;;0.10;0.10;;;;;;;18.95;36.96;99880.84;5006977;28;20029;-84
2022/09/23 09:49:57;;;;;;;0.63;0.63;;;;;;;19.01;36.61;99905.56;5006378;28;20058;-82
2022/09/23 09:52:28;;;;;;;0.20;0.20;;;;;;;19.19;35.15;99898.47;4997849;28;20026;-83
2022/09/23 09:55:13;;;;;;;0.20;0.20;;;;;;;19.10;35.75;99878.38;4999245;28;20061;-84
2022/09/23 09:58:03;;;;;;;0.10;0.10;;;;;;;19.23;35.53;99892.91;5002657;28;20393;-85
2022/09/23 10:00:29;;;;;;;0.10;0.10;;;;;;;18.85;35.52;99908.06;5006212;28;20057;-83
2022/09/23 10:03:00;;;;;;;0.77;0.77;;;;;;;19.00;34.98;99914.50;5000092;28;20044;-84
2022/09/23 10:05:27;;;;;;;0.32;0.32;;;;;;;18.71;37.18;99895.31;5003281;28;20033;-85
2022/09/23 10:07:53;;;;;;;2.65;1.98;;;;;;;18.63;34.53;99871.63;4987344;28;20053;-84
2022/09/23 10:10:24;;;;;;;0.20;0.20;;;;;;;18.71;37.30;99861.44;5000771;28;20026;-84
2022/09/23 10:12:51;;;;;;;0.10;0.10;;;;;;;18.98;37.25;99860.25;5001387;28;20424;-86
2022/09/23 10:15:43;;;;;;;0.30;0.30;;;;;;;19.30;36.13;99890.81;5004584;28;20026;-85
2022/09/23 10:18:19;;;;;;;0.10;0.10;;;;;;;19.16;34.75;99885.25;4998457;28;20524;-84
2022/09/23 10:20:45;;;;;;;;;;;;;;;19.33;35.58;99898.69;5010604;28;20041;-83
2022/09/23 10:23:20;;;;;;;0.68;0.68;;;;;;;19.39;34.25;99850.25;5009942;28;19917;-85
2022/09/23 10:25:59;;;;;;;1.00;0.95;;;;;;;19.45;34.71;99827.69;5010304;28;20060;-83
2022/09/23 10:28:43;;;;;;;0.60;0.60;;;;;;;19.45;34.22;99855.28;5010684;28;20076;-84
2022/09/23 10:31:13;;;;;;;0.35;0.35;;;;;;;19.55;35.54;99855.69;4995008;28;20055;-84
2022/09/23 10:33:47;;;;;;;1.08;0.85;;;;;;;19.55;35.93;99858.38;5006934;28;20045;-84
2022/09/23 10:36:15;;;;;;;1.08;1.00;;;;;;;19.49;32.85;99869.38;4999458;28;20045;-83
2022/09/23 10:38:41;;;;;;;0.30;0.30;;;;;;;19.61;33.00;99854.53;5004797;28;20042;-84
2022/09/23 10:47:35;;;;;;;0.47;0.47;;;;;;;20.30;35.82;99850.16;4998074;28;20068;-85
2022/09/23 10:50:36;;;;;;;0.20;0.20;;;;;;;20.13;31.25;99848.38;4999516;28;20069;-86
2022/09/23 10:53:03;;;;;;;0.30;0.30;;;;;;;20.55;31.25;99847.03;4975391;28;20503;-86
2022/09/23 10:56:11;;;;;;;0.10;0.10;;;;;;;20.30;34.32;99850.16;4973861;28;20495;-84
2022/09/23 10:58:42;;;;;;;1.13;0.68;;;;;;;20.65;31.37;99840.28;4930236;28;20046;-86
2022/09/23 11:01:12;;;;;;;0.10;0.10;;;;;;;20.66;31.88;99858.06;4990213;28;20042;-84
2022/09/23 11:03:40;;;;;;;0.30;0.30;;;;;;;20.36;30.29;99850.69;4989999;28;20121;-84
2022/09/23 11:06:30;;;;;;;0.10;0.10;;;;;;;20.41;29.86;99831.69;4990411;28;20038;-84
2022/09/23 11:08:56;;;;;;;0.20;0.20;;;;;;;20.58;30.14;99807.53;4972610;28;20456;-84
2022/09/23 11:11:46;;;;;;;0.28;0.28;;;;;;;20.41;30.17;99810.25;4989753;28;20092;-84
2022/09/23 11:14:15;;;;;;;0.10;0.10;;;;;;;20.55;29.97;99825.59;4989822;28;20041;-83
2022/09/23 11:17:04;;;;;;;0.10;0.10;;;;;;;20.85;30.01;99820.41;4990448;28;20030;-84
2022/09/23 11:19:39;;;;;;;0.20;0.20;;;;;;;20.95;31.06;99830.63;4952154;28;20050;-85
2022/09/23 11:22:22;;;;;;;0.10;0.10;;;;;;;20.48;28.14;99814.34;4988990;28;20034;-84
2022/09/23 11:25:15;;;;;;;0.10;0.10;;;;;;;20.41;29.31;99780.78;4990057;28;20080;-84
2022/09/23 11:28:06;;;;;;;0.20;0.20;;;;;;;20.41;29.25;99754.00;4998958;28;20030;-84
2022/09/23 11:30:50;;;;;;;0.10;0.10;;;;;;;20.93;30.65;99790.50;4997226;28;20038;-84
2022/09/23 11:33:24;;;;;;;0.10;0.10;;;;;;;20.98;28.90;99795.59;5005798;28;20831;-85
2022/09/23 11:36:01;;;;;;;0.10;0.10;;;;;;;21.01;30.42;99795.41;5002788;28;20034;-85
2022/09/23 11:38:36;;;;;;;0.47;0.47;;;;;;;20.81;28.30;99786.66;4995525;28;20042;-87
2022/09/23 11:41:18;;;;;;;0.22;0.22;;;;;;;20.56;28.19;99753.16;4997433;28;20041;-89
2022/09/23 11:43:51;;;;;;;0.10;0.10;;;;;;;20.66;29.52;99761.56;4999380;28;20031;-85
2022/09/23 11:46:29;;;;;;;0.10;0.10;;;;;;;21.09;29.18;99782.44;5004966;28;20026;-89
2022/09/23 11:49:11;;;;;;;0.20;0.20;;;;;;;21.11;27.81;99780.50;5003771;28;20041;-88
2022/09/23 11:52:03;;;;;;;0.10;0.10;;;;;;;20.80;27.59;99743.88;5001600;28;20045;-86
2022/09/23 11:54:40;;;;;;;0.10;0.10;;;;;;;20.90;27.57;99748.63;4965246;28;20468;-85
2022/09/23 11:57:13;;;;;;;2.22;0.75;;;;;;;20.99;27.16;99716.84;5010711;28;20033;-85
2022/09/23 11:59:53;;;;;;;0.10;0.10;;;;;;;21.04;29.43;99750.50;5000839;28;20038;-86
2022/09/23 12:02:39;;;;;;;0.10;0.10;;;;;;;21.15;27.88;99781.19;5007078;28;20044;-86
2022/09/23 12:05:11;;;;;;;0.10;0.10;;;;;;;21.09;27.48;99743.06;4975012;28;20530;-86
2022/09/23 12:08:12;;;;;;;0.00;0.00;;;;;;;21.07;28.71;99763.75;4989309;28;20546;-84
2022/09/23 12:11:00;;;;;;;0.10;0.10;;;;;;;21.30;28.09;99758.84;5001286;28;20038;-83